Time;durP1;ratioP1;P1;durP2;ratioP2;P2;SDS_P1;SDS_P2;PMS_P1;PMS_P2;Temp;Humidity;BMP_temperature;BMP_pressure;BME280_temperature;BME280_humidity;BME280_pressure;Samples;Min_cycle;Max_cycle;Signal;HPM_P1;HPM_P2
2021/03/11 00:01:30;;;;;;;3.42;2.13;;;;;;;25.81;28.51;96175.75;4987971;28;20035;-33
2021/03/11 00:03:55;;;;;;;3.67;2.20;;;;;;;25.81;28.44;96170.50;4967383;28;20034;-31
2021/03/11 00:06:20;;;;;;;5.47;2.40;;;;;;;25.80;28.44;96168.84;4977928;28;21066;-33
2021/03/11 00:08:48;;;;;;;3.03;2.10;;;;;;;25.81;28.49;96165.25;4975340;28;20077;-32
2021/03/11 00:11:14;;;;;;;2.80;2.22;;;;;;;25.81;28.44;96159.16;4976249;28;20113;-31
2021/03/11 00:13:39;;;;;;;3.58;2.15;;;;;;;25.81;28.53;96159.16;4973272;28;20120;-32
2021/03/11 00:16:05;;;;;;;3.25;2.50;;;;;;;25.81;28.31;96159.16;4976449;28;20459;-33
2021/03/11 00:18:30;;;;;;;6.50;2.40;;;;;;;25.81;28.66;96165.25;4983609;28;20026;-34
2021/03/11 00:20:56;;;;;;;3.38;2.10;;;;;;;25.81;28.35;96157.38;4982819;28;20030;-35
2021/03/11 00:23:22;;;;;;;3.85;2.47;;;;;;;25.80;28.42;96163.59;4979586;28;20033;-32
2021/03/11 00:25:47;;;;;;;4.32;2.25;;;;;;;25.80;28.32;96158.34;4977717;28;20038;-34
2021/03/11 00:28:13;;;;;;;2.17;1.67;;;;;;;25.80;28.58;96153.09;4976663;28;20026;-33
2021/03/11 00:30:38;;;;;;;3.65;2.00;;;;;;;25.78;28.45;96154.94;4980426;28;20093;-32
2021/03/11 00:33:04;;;;;;;4.18;2.30;;;;;;;25.79;28.42;96151.41;4984657;28;20644;-32
2021/03/11 00:35:29;;;;;;;4.85;2.30;;;;;;;25.79;28.33;96153.19;4974460;28;20029;-32
2021/03/11 00:37:55;;;;;;;3.38;2.20;;;;;;;25.78;28.41;96149.69;4975600;28;20793;-33
2021/03/11 00:40:20;;;;;;;3.75;2.30;;;;;;;25.78;28.16;96148.88;4978455;28;20398;-33
2021/03/11 00:42:46;;;;;;;5.47;2.22;;;;;;;25.78;28.38;96149.69;4959302;28;20493;-32
2021/03/11 00:45:12;;;;;;;2.83;1.98;;;;;;;25.78;28.31;96154.94;4960129;28;20387;-33
2021/03/11 00:47:38;;;;;;;3.58;2.05;;;;;;;25.77;28.43;96153.28;5000300;28;20593;-32
2021/03/11 00:50:08;;;;;;;3.92;1.85;;;;;;;25.74;28.28;96148.22;4997201;28;20026;-32
2021/03/11 00:52:33;;;;;;;3.03;2.03;;;;;;;25.76;28.30;96151.59;4982587;28;20026;-31
2021/03/11 00:54:58;;;;;;;3.25;1.90;;;;;;;25.76;28.33;96151.59;4998201;28;20474;-32
2021/03/11 00:57:24;;;;;;;3.50;2.10;;;;;;;25.75;28.24;96160.41;5001711;28;20037;-33
2021/03/11 00:59:49;;;;;;;3.58;2.25;;;;;;;25.75;28.14;96152.53;5001267;28;20030;-34
2021/03/11 01:02:15;;;;;;;5.72;1.92;;;;;;;25.74;28.31;96158.72;4974523;28;20561;-33
2021/03/11 01:04:40;;;;;;;5.30;2.33;;;;;;;25.75;28.34;96155.16;4998836;28;20022;-34
2021/03/11 01:07:05;;;;;;;3.67;1.92;;;;;;;25.73;28.41;96154.41;4997979;28;20037;-32
2021/03/11 01:09:31;;;;;;;2.20;1.60;;;;;;;25.75;28.31;96160.41;5001931;28;20030;-32
2021/03/11 01:11:57;;;;;;;2.55;1.88;;;;;;;25.74;28.32;96158.72;4989414;28;20552;-33
2021/03/11 01:14:22;;;;;;;3.38;1.90;;;;;;;25.74;28.45;96145.59;4995077;28;20105;-32
2021/03/11 01:16:48;;;;;;;2.85;1.65;;;;;;;25.74;28.37;96147.38;4996306;28;20836;-33
2021/03/11 01:19:14;;;;;;;2.72;1.85;;;;;;;25.74;28.34;96142.97;4993110;28;20118;-33
2021/03/11 01:21:39;;;;;;;3.08;1.80;;;;;;;25.74;28.14;96132.47;4977900;28;20536;-31
2021/03/11 01:24:05;;;;;;;3.05;1.80;;;;;;;25.74;28.38;96124.59;4998789;28;20044;-34
2021/03/11 01:26:31;;;;;;;4.70;1.90;;;;;;;25.74;28.45;96111.47;4997077;28;20029;-32
2021/03/11 01:28:56;;;;;;;3.17;2.03;;;;;;;25.73;28.30;96096.66;4999895;28;20029;-33
2021/03/11 01:31:21;;;;;;;3.65;1.90;;;;;;;25.72;28.19;96079.25;4991405;28;20631;-33
2021/03/11 01:33:47;;;;;;;2.40;1.70;;;;;;;25.72;28.53;96076.63;4982368;28;20116;-31
2021/03/11 01:36:12;;;;;;;2.58;1.80;;;;;;;25.72;28.31;96071.38;4980516;28;20019;-34
2021/03/11 01:38:37;;;;;;;2.13;1.80;;;;;;;25.72;28.23;96066.13;4977084;28;20045;-33
2021/03/11 01:41:03;;;;;;;1.98;1.50;;;;;;;25.72;28.38;96055.63;4976955;28;20030;-32
2021/03/11 01:43:28;;;;;;;2.55;1.73;;;;;;;25.71;28.23;96043.47;4979363;28;20030;-33
2021/03/11 01:45:54;;;;;;;2.10;1.55;;;;;;;25.72;28.37;96021.53;4973010;28;20408;-34
2021/03/11 01:48:19;;;;;;;2.03;1.45;;;;;;;25.72;28.46;96008.41;4975655;28;20057;-31
2021/03/11 01:50:44;;;;;;;4.75;1.88;;;;;;;25.72;28.31;95999.66;4977715;28;20026;-32
2021/03/11 01:53:10;;;;;;;3.03;1.60;;;;;;;25.70;28.24;95999.75;4977103;28;20026;-33
2021/03/11 01:55:35;;;;;;;4.55;1.67;;;;;;;25.71;28.31;95996.22;4981121;28;20091;-35
2021/03/11 01:58:00;;;;;;;1.75;1.40;;;;;;;25.70;28.36;95991.91;4965042;28;20031;-34
2021/03/11 02:00:26;;;;;;;2.25;1.50;;;;;;;25.70;28.45;95987.50;4980508;28;20034;-35
2021/03/11 02:02:52;;;;;;;3.47;1.50;;;;;;;25.71;28.27;95990.97;4980458;28;20691;-30
2021/03/11 02:05:18;;;;;;;3.35;1.52;;;;;;;25.70;28.40;95984.03;4962000;28;20513;-34
2021/03/11 02:07:43;;;;;;;3.35;1.40;;;;;;;25.69;28.27;95971.84;4959516;28;20112;-33
2021/03/11 02:10:10;;;;;;;1.65;1.35;;;;;;;25.70;28.29;95960.41;4956880;28;20040;-33
2021/03/11 02:12:37;;;;;;;1.83;1.60;;;;;;;25.70;28.28;95957.78;4965845;28;20022;-34
2021/03/11 02:15:04;;;;;;;1.70;1.40;;;;;;;25.69;28.21;95948.22;4963852;28;20038;-33
2021/03/11 02:17:59;;;;;;;2.10;1.33;;;;;;;25.69;28.37;95949.09;4961514;28;20095;-34
2021/03/11 02:20:37;;;;;;;1.92;1.38;;;;;;;25.68;28.40;95952.66;4951208;28;22176;-33
2021/03/11 02:23:21;;;;;;;1.77;1.40;;;;;;;25.68;28.27;95943.94;4962824;28;20084;-34
2021/03/11 02:26:25;;;;;;;2.70;1.38;;;;;;;25.68;28.40;95928.19;4959697;28;20299;-34
2021/03/11 02:29:03;;;;;;;3.05;1.50;;;;;;;25.67;28.29;95916.84;4951664;28;20069;-34
2021/03/11 02:31:30;;;;;;;3.00;1.60;;;;;;;25.68;28.35;95917.69;4959242;28;20039;-32
2021/03/11 02:33:55;;;;;;;2.92;1.30;;;;;;;25.68;28.23;95907.19;4945677;28;20822;-32
2021/03/11 02:36:21;;;;;;;1.38;1.02;;;;;;;25.68;28.17;95899.34;4983967;28;20041;-33
2021/03/11 02:38:46;;;;;;;3.13;1.58;;;;;;;25.67;28.40;95895.84;4938325;28;20644;-33
2021/03/11 02:41:12;;;;;;;1.48;1.27;;;;;;;25.68;28.39;95886.22;4948637;28;20522;-32
2021/03/11 02:43:38;;;;;;;3.35;1.50;;;;;;;25.67;28.33;95890.59;4942496;28;20035;-34
2021/03/11 02:46:03;;;;;;;2.28;1.30;;;;;;;25.67;28.19;95889.78;4943097;28;20038;-34
2021/03/11 02:48:28;;;;;;;2.35;1.30;;;;;;;25.67;28.22;95890.59;4947981;28;20026;-34
2021/03/11 02:50:54;;;;;;;2.35;1.58;;;;;;;25.65;28.34;95886.41;4951909;28;20038;-32
2021/03/11 02:53:19;;;;;;;1.58;1.20;;;;;;;25.67;28.24;95884.53;4944283;28;20057;-33
2021/03/11 02:55:45;;;;;;;2.58;1.40;;;;;;;25.68;28.24;95881.81;4942419;28;20031;-32
2021/03/11 02:58:11;;;;;;;1.30;1.10;;;;;;;25.67;28.18;95869.63;4949876;28;20478;-33
2021/03/11 03:00:37;;;;;;;1.90;1.42;;;;;;;25.67;28.33;95868.78;4963121;28;20057;-32
2021/03/11 03:03:03;;;;;;;1.77;1.23;;;;;;;25.67;28.27;95868.78;4960754;28;20038;-30
2021/03/11 03:05:29;;;;;;;3.40;1.27;;;;;;;25.65;28.20;95865.41;4954272;28;20076;-34
2021/03/11 03:07:54;;;;;;;2.63;1.20;;;;;;;25.66;28.12;95859.25;4959879;28;20018;-33
2021/03/11 03:10:22;;;;;;;1.80;1.30;;;;;;;25.66;28.22;95846.13;4965015;28;20041;-32
2021/03/11 03:12:51;;;;;;;1.77;1.10;;;;;;;25.66;28.07;95856.63;4979806;28;20038;-32
2021/03/11 03:15:18;;;;;;;1.42;1.10;;;;;;;25.67;28.13;95850.44;4977563;28;20037;-37
2021/03/11 03:17:45;;;;;;;2.50;1.25;;;;;;;25.65;28.23;95833.94;4961372;28;20038;-33
2021/03/11 03:20:12;;;;;;;2.15;1.13;;;;;;;25.64;28.14;95822.63;4956384;28;20030;-32
2021/03/11 03:22:37;;;;;;;1.90;1.13;;;;;;;25.65;28.30;95818.19;4983292;28;20037;-34
2021/03/11 03:25:06;;;;;;;1.30;1.13;;;;;;;25.66;28.27;95830.38;4964566;28;20034;-32
2021/03/11 03:27:32;;;;;;;3.28;1.30;;;;;;;25.65;28.15;95829.53;4983301;28;20041;-32
2021/03/11 03:29:58;;;;;;;1.60;1.30;;;;;;;25.65;28.06;95828.69;4960040;28;20116;-32
2021/03/11 03:32:23;;;;;;;2.08;1.35;;;;;;;25.64;28.05;95830.50;4981007;28;20100;-31
2021/03/11 03:34:49;;;;;;;3.83;1.17;;;;;;;25.64;28.07;95812.13;4976950;28;20037;-33
2021/03/11 03:37:14;;;;;;;1.52;1.15;;;;;;;25.64;28.15;95816.53;4985323;28;20026;-32
2021/03/11 03:39:39;;;;;;;2.67;1.33;;;;;;;25.64;28.07;95800.78;4980237;28;20038;-34
2021/03/11 03:42:05;;;;;;;2.03;1.40;;;;;;;25.63;28.02;95809.59;4982257;28;20038;-34
2021/03/11 03:44:33;;;;;;;1.90;1.33;;;;;;;25.62;28.11;95795.63;4947199;28;20484;-34
2021/03/11 03:46:59;;;;;;;2.55;1.17;;;;;;;25.63;27.97;95799.09;4944905;28;20053;-31
2021/03/11 03:49:24;;;;;;;1.75;1.10;;;;;;;25.61;28.08;95791.34;4963252;28;20431;-32
2021/03/11 03:51:52;;;;;;;1.20;1.10;;;;;;;25.62;28.07;95803.50;4961845;28;20053;-34
2021/03/11 03:54:29;;;;;;;3.20;1.45;;;;;;;25.61;28.20;95796.56;4963185;28;20523;-33
2021/03/11 03:57:02;;;;;;;1.35;1.13;;;;;;;25.62;28.13;95800.06;4950956;28;20053;-34
2021/03/11 03:59:34;;;;;;;2.45;1.50;;;;;;;25.62;28.06;95802.69;4966813;28;20061;-32
2021/03/11 04:01:59;;;;;;;3.60;0.90;;;;;;;25.61;28.03;95800.97;4957875;28;20057;-31
2021/03/11 04:04:26;;;;;;;2.05;1.15;;;;;;;25.61;28.15;95811.47;4978371;28;20034;-33
2021/03/11 04:06:52;;;;;;;2.13;1.10;;;;;;;25.60;28.17;95807.19;4943942;28;20026;-33
2021/03/11 04:09:17;;;;;;;1.20;0.98;;;;;;;25.60;28.08;95804.56;4950248;28;20606;-32
2021/03/11 04:11:43;;;;;;;1.58;1.13;;;;;;;25.60;28.06;95804.56;4954868;28;20018;-34
2021/03/11 04:14:09;;;;;;;1.38;0.90;;;;;;;25.61;27.99;95803.59;4958250;28;20538;-34
2021/03/11 04:16:34;;;;;;;2.08;1.23;;;;;;;25.61;28.09;95803.59;4963694;28;20038;-32
2021/03/11 04:19:00;;;;;;;2.13;1.00;;;;;;;25.61;28.03;95791.34;4944452;28;20551;-36
2021/03/11 04:21:26;;;;;;;1.10;1.00;;;;;;;25.60;27.99;95794.91;4947063;28;20069;-34
2021/03/11 04:23:52;;;;;;;2.50;1.02;;;;;;;25.59;28.06;95798.44;4951245;28;20026;-34
2021/03/11 04:26:17;;;;;;;1.85;0.95;;;;;;;25.60;27.98;95799.31;4946876;28;20072;-33
2021/03/11 04:28:43;;;;;;;2.08;1.15;;;;;;;25.59;28.09;95798.44;4963685;28;20081;-32
2021/03/11 04:31:08;;;;;;;1.80;1.10;;;;;;;25.60;28.05;95794.06;4946087;28;20053;-33
2021/03/11 04:33:34;;;;;;;1.88;1.05;;;;;;;25.60;28.03;95800.16;4939512;28;20037;-33
2021/03/11 04:35:59;;;;;;;1.75;0.98;;;;;;;25.59;28.17;95792.38;4980748;28;20585;-31
2021/03/11 04:38:25;;;;;;;1.17;1.00;;;;;;;25.60;28.10;95799.31;4957815;28;20108;-33
2021/03/11 04:40:51;;;;;;;1.23;1.05;;;;;;;25.60;27.99;95799.31;4960625;28;20117;-31
2021/03/11 04:43:16;;;;;;;1.88;1.05;;;;;;;25.59;27.89;95808.13;4964952;28;20746;-33
2021/03/11 04:45:42;;;;;;;2.35;1.13;;;;;;;25.60;28.08;95812.41;4979729;28;20049;-35
2021/03/11 04:48:08;;;;;;;2.15;1.20;;;;;;;25.59;28.14;95818.63;4938845;28;20073;-34
2021/03/11 04:50:39;;;;;;;1.02;0.73;;;;;;;25.59;28.08;95808.13;4964547;28;20101;-34
2021/03/11 04:53:05;;;;;;;1.20;1.00;;;;;;;25.60;27.95;95807.19;4978046;28;20526;-35
2021/03/11 04:55:30;;;;;;;1.27;0.85;;;;;;;25.59;28.20;95808.13;4951995;28;20037;-34
2021/03/11 04:57:56;;;;;;;1.23;0.93;;;;;;;25.58;28.04;95807.28;4955279;28;20529;-31
2021/03/11 05:00:21;;;;;;;4.60;1.25;;;;;;;25.59;28.14;95808.13;4959198;28;20548;-33
2021/03/11 05:02:47;;;;;;;1.80;0.80;;;;;;;25.59;27.98;95802.88;4948671;28;23142;-32
2021/03/11 05:05:12;;;;;;;1.27;1.10;;;;;;;25.59;27.94;95808.94;4981641;28;20027;-30
2021/03/11 05:07:38;;;;;;;1.00;0.80;;;;;;;25.57;27.92;95803.84;4961910;28;20037;-32
2021/03/11 05:10:04;;;;;;;1.02;0.90;;;;;;;25.58;28.09;95799.41;4979261;28;20034;-35
2021/03/11 05:12:29;;;;;;;1.75;1.02;;;;;;;25.59;27.88;95802.88;4981370;28;20445;-33
2021/03/11 05:14:55;;;;;;;0.95;0.70;;;;;;;25.59;28.13;95808.13;4945201;28;20150;-33
2021/03/11 05:17:20;;;;;;;3.05;1.08;;;;;;;25.58;28.11;95817.78;4977848;28;20038;-33
2021/03/11 05:19:45;;;;;;;1.88;0.77;;;;;;;25.56;28.04;95809.19;4977231;28;20045;-34
2021/03/11 05:22:11;;;;;;;1.95;0.98;;;;;;;25.58;28.11;95823.00;4970700;28;20257;-34
2021/03/11 05:24:36;;;;;;;1.17;0.95;;;;;;;25.58;28.00;95823.00;4963926;28;20022;-33
2021/03/11 05:27:02;;;;;;;0.82;0.68;;;;;;;25.58;28.13;95802.03;4960452;28;20100;-32
2021/03/11 05:29:27;;;;;;;1.17;0.80;;;;;;;25.57;27.98;95800.34;4978263;28;20745;-34
2021/03/11 05:31:52;;;;;;;0.85;0.77;;;;;;;25.59;28.10;95797.63;4977372;28;20118;-36
2021/03/11 05:34:18;;;;;;;1.15;0.80;;;;;;;25.57;28.10;95790.72;4982110;28;20193;-32
2021/03/11 05:36:43;;;;;;;0.80;0.70;;;;;;;25.57;28.11;95790.72;4973402;28;21063;-32
2021/03/11 05:39:09;;;;;;;1.20;0.88;;;;;;;25.57;28.11;95795.09;4978418;28;20487;-33
2021/03/11 05:41:36;;;;;;;1.65;0.90;;;;;;;25.56;27.90;95796.88;4977128;28;20126;-35
2021/03/11 05:44:01;;;;;;;1.40;0.70;;;;;;;25.56;27.99;95794.25;4961740;28;20499;-32
2021/03/11 05:46:27;;;;;;;0.80;0.80;;;;;;;25.54;28.19;95793.50;4964261;28;20042;-33
2021/03/11 05:48:54;;;;;;;2.20;0.70;;;;;;;25.56;28.03;95799.50;4941756;28;20023;-34
2021/03/11 05:51:19;;;;;;;2.05;0.70;;;;;;;25.55;27.98;95800.41;4962798;28;20076;-32
2021/03/11 05:53:44;;;;;;;2.90;1.20;;;;;;;25.53;28.08;95789.22;4979706;28;20023;-33
2021/03/11 05:56:10;;;;;;;4.95;1.23;;;;;;;25.52;28.03;95803.25;4963873;28;20068;-34
2021/03/11 05:58:35;;;;;;;1.52;0.70;;;;;;;25.51;28.01;95806.81;4982838;28;20026;-33
2021/03/11 06:01:04;;;;;;;2.95;1.15;;;;;;;25.51;28.05;95796.31;4945661;28;20058;-34
2021/03/11 06:03:32;;;;;;;1.73;0.95;;;;;;;25.50;28.06;95775.44;4945693;28;20454;-34
2021/03/11 06:05:59;;;;;;;1.85;1.20;;;;;;;25.50;28.00;95773.66;4975793;28;20034;-33
2021/03/11 06:08:25;;;;;;;2.25;1.05;;;;;;;25.50;27.96;95767.56;4978698;28;20018;-33
2021/03/11 06:10:57;;;;;;;1.08;0.80;;;;;;;25.49;28.08;95769.38;4947543;28;20041;-33
2021/03/11 06:13:25;;;;;;;0.95;0.68;;;;;;;25.51;28.01;95758.78;4975452;28;20430;-32
2021/03/11 06:16:21;;;;;;;2.47;0.80;;;;;;;25.49;28.15;95761.50;4971516;28;20053;-35
2021/03/11 06:18:47;;;;;;;3.22;0.82;;;;;;;25.50;28.05;95754.47;4973187;28;20037;-35
2021/03/11 06:21:12;;;;;;;0.85;0.52;;;;;;;25.50;28.14;95747.44;4957126;28;20026;-34
2021/03/11 06:23:38;;;;;;;0.68;0.68;;;;;;;25.49;28.12;95753.63;4961009;28;20065;-32
2021/03/11 06:26:03;;;;;;;0.98;0.47;;;;;;;25.50;28.19;95741.34;4961654;28;20022;-36
2021/03/11 06:28:43;;;;;;;1.00;0.70;;;;;;;25.49;28.04;95745.78;4979245;28;20027;-35
2021/03/11 06:31:26;;;;;;;0.85;0.60;;;;;;;25.50;28.14;95762.31;4975704;28;20058;-34
2021/03/11 06:33:53;;;;;;;1.55;0.90;;;;;;;25.50;27.92;95751.84;4972836;28;20065;-32
2021/03/11 06:36:22;;;;;;;1.48;0.70;;;;;;;25.48;28.13;95754.59;4961130;28;20030;-33
2021/03/11 06:38:48;;;;;;;4.43;1.02;;;;;;;25.48;28.04;95767.69;4973987;28;20062;-32
2021/03/11 06:41:14;;;;;;;1.05;0.88;;;;;;;25.48;28.25;95769.47;4974089;28;20030;-35
2021/03/11 06:43:59;;;;;;;0.70;0.70;;;;;;;25.48;28.01;95770.31;4972459;28;20030;-32
2021/03/11 06:46:26;;;;;;;2.53;1.00;;;;;;;25.48;28.04;95757.22;4977156;28;20116;-37
2021/03/11 06:49:24;;;;;;;1.10;0.60;;;;;;;25.48;28.16;95765.09;4970955;28;20029;-35
2021/03/11 06:52:08;;;;;;;1.85;1.00;;;;;;;25.48;28.11;95759.84;4938067;28;20710;-33
2021/03/11 06:54:59;;;;;;;1.55;0.88;;;;;;;25.48;28.18;95770.31;4973077;28;20415;-35
2021/03/11 06:57:29;;;;;;;1.10;0.60;;;;;;;25.47;28.14;95771.25;4972800;28;20046;-34
2021/03/11 06:59:57;;;;;;;2.88;0.90;;;;;;;25.47;28.16;95760.75;4977629;28;20034;-34
2021/03/11 07:02:23;;;;;;;0.82;0.65;;;;;;;25.47;28.00;95773.88;4952049;28;20403;-33
2021/03/11 07:04:49;;;;;;;3.38;1.35;;;;;;;25.47;28.02;95778.28;4978851;28;20018;-34
2021/03/11 07:07:24;;;;;;;4.53;0.65;;;;;;;25.46;28.06;95766.94;4966468;28;20041;-32
2021/03/11 07:09:50;;;;;;;0.65;0.60;;;;;;;25.48;27.93;95757.22;4964671;28;20018;-32
2021/03/11 07:12:16;;;;;;;1.25;0.75;;;;;;;25.48;28.06;95751.97;4983052;28;20045;-33
2021/03/11 07:14:42;;;;;;;1.48;0.93;;;;;;;25.48;28.03;95774.72;4982731;28;20407;-31
2021/03/11 07:17:24;;;;;;;2.53;0.70;;;;;;;25.48;28.03;95778.19;4962210;28;20061;-31
2021/03/11 07:20:05;;;;;;;1.17;0.75;;;;;;;25.45;28.13;95771.34;4970046;28;20180;-33
2021/03/11 07:22:31;;;;;;;0.73;0.73;;;;;;;25.48;28.11;95765.09;4976395;28;20023;-34
2021/03/11 07:24:56;;;;;;;1.63;0.80;;;;;;;25.47;28.03;95759.94;4975312;28;20594;-34
2021/03/11 07:27:22;;;;;;;1.17;0.70;;;;;;;25.47;28.27;95778.28;4983845;28;20034;-33
2021/03/11 07:30:07;;;;;;;0.88;0.70;;;;;;;25.47;28.08;95766.00;4967928;28;20022;-33
2021/03/11 07:32:34;;;;;;;1.20;0.65;;;;;;;25.46;28.03;95766.94;4970699;28;20042;-31
2021/03/11 07:34:59;;;;;;;1.15;0.60;;;;;;;25.46;27.95;95761.72;4981653;28;20077;-31
2021/03/11 07:37:25;;;;;;;3.33;0.60;;;;;;;25.47;27.93;95770.44;4963493;28;20533;-32
2021/03/11 07:39:50;;;;;;;2.05;0.82;;;;;;;25.46;28.02;95782.69;4969796;28;20088;-34
2021/03/11 07:42:16;;;;;;;5.50;0.93;;;;;;;25.45;27.94;95776.59;4948027;28;20046;-36
2021/03/11 07:44:41;;;;;;;5.15;0.90;;;;;;;25.47;28.16;95783.53;4958846;28;20084;-31
2021/03/11 07:47:07;;;;;;;5.03;0.90;;;;;;;25.46;28.02;95769.56;4978517;28;20124;-33
2021/03/11 07:49:33;;;;;;;14.80;1.85;;;;;;;25.45;27.86;95765.28;4980970;28;20561;-32
2021/03/11 07:51:58;;;;;;;6.22;0.98;;;;;;;25.44;28.05;95753.13;4960557;28;20273;-33
2021/03/11 07:54:24;;;;;;;3.45;1.05;;;;;;;25.43;28.06;95762.75;4960458;28;20023;-32
2021/03/11 07:56:49;;;;;;;1.92;0.88;;;;;;;25.44;27.89;95758.38;4974294;28;20027;-32
2021/03/11 07:59:15;;;;;;;2.65;0.80;;;;;;;25.44;28.08;95764.44;4975858;28;20687;-35
2021/03/11 08:01:58;;;;;;;1.48;0.85;;;;;;;25.44;28.20;95743.44;4974374;28;20521;-33
2021/03/11 08:04:25;;;;;;;2.55;1.00;;;;;;;25.45;27.98;95733.81;4941256;28;20034;-35
2021/03/11 08:06:50;;;;;;;3.75;0.88;;;;;;;25.46;28.13;95740.72;4946060;28;20072;-33
2021/03/11 08:09:35;;;;;;;1.15;0.68;;;;;;;25.45;27.98;95754.78;4944532;28;20018;-30
2021/03/11 08:12:27;;;;;;;5.03;0.80;;;;;;;25.46;28.03;95740.72;4975348;28;20149;-31
2021/03/11 08:15:01;;;;;;;3.35;0.95;;;;;;;25.47;28.07;95734.53;4975011;28;20037;-31
2021/03/11 08:17:42;;;;;;;1.90;0.60;;;;;;;25.47;28.27;95731.91;4958064;28;20133;-34
2021/03/11 08:20:09;;;;;;;4.07;1.05;;;;;;;25.48;28.04;95738.84;4976248;28;20022;-32
2021/03/11 08:22:53;;;;;;;1.90;0.98;;;;;;;25.48;28.09;95730.97;4986245;28;20069;-31
2021/03/11 08:25:33;;;;;;;2.25;1.05;;;;;;;25.48;27.90;95728.34;4979035;28;20022;-37
2021/03/11 08:27:59;;;;;;;1.83;0.82;;;;;;;25.50;28.18;95715.97;4976363;28;20054;-35
2021/03/11 08:30:46;;;;;;;1.45;0.70;;;;;;;25.50;28.38;95726.47;4979417;28;20038;-34
2021/03/11 08:33:32;;;;;;;1.90;0.63;;;;;;;25.50;28.11;95721.22;4968476;28;20121;-32
2021/03/11 08:35:58;;;;;;;3.58;0.85;;;;;;;25.51;28.10;95720.25;4972292;28;20034;-35
2021/03/11 08:38:23;;;;;;;3.83;0.80;;;;;;;25.51;28.25;95707.13;4976287;28;20058;-30
2021/03/11 08:40:52;;;;;;;0.98;0.70;;;;;;;25.52;28.16;95698.31;4980718;28;20183;-34
2021/03/11 08:43:39;;;;;;;0.70;0.50;;;;;;;25.51;28.12;95701.91;4964122;28;20565;-33
2021/03/11 08:46:08;;;;;;;3.22;0.63;;;;;;;25.53;28.17;95686.06;4982920;28;20124;-30
2021/03/11 08:48:50;;;;;;;1.75;0.82;;;;;;;25.52;28.17;95674.72;4980475;28;20390;-32
2021/03/11 08:51:18;;;;;;;1.48;0.60;;;;;;;25.52;28.17;95672.09;4983495;28;20088;-32
2021/03/11 08:53:59;;;;;;;1.58;0.57;;;;;;;25.52;28.45;95669.47;4979885;28;20050;-31
2021/03/11 08:56:27;;;;;;;1.70;0.60;;;;;;;25.53;28.25;95676.41;4976879;28;20027;-35
2021/03/11 08:59:03;;;;;;;2.05;0.82;;;;;;;25.53;28.32;95676.41;4982368;28;20125;-33
2021/03/11 09:01:31;;;;;;;2.03;0.80;;;;;;;25.54;28.38;95672.84;4975039;28;20498;-35
2021/03/11 09:03:57;;;;;;;3.38;0.80;;;;;;;25.54;28.42;95670.22;4982777;28;20450;-32
2021/03/11 09:06:54;;;;;;;3.25;0.73;;;;;;;25.55;28.34;95650.06;4957694;28;20031;-32
2021/03/11 09:09:49;;;;;;;1.60;0.50;;;;;;;25.55;28.31;95665.81;4975069;28;20049;-34
2021/03/11 09:12:16;;;;;;;1.00;0.40;;;;;;;25.56;28.43;95662.28;4958674;28;20121;-32
2021/03/11 09:14:46;;;;;;;0.95;0.65;;;;;;;25.55;28.38;95655.31;4975152;28;20038;-33
2021/03/11 09:17:21;;;;;;;1.25;0.60;;;;;;;25.56;28.55;95646.53;4956204;28;20046;-32
2021/03/11 09:20:00;;;;;;;2.20;0.80;;;;;;;25.57;28.45;95654.31;4976897;28;20022;-32
2021/03/11 09:22:38;;;;;;;1.17;0.77;;;;;;;25.57;28.32;95667.41;4980410;28;20676;-31
2021/03/11 09:25:21;;;;;;;1.60;0.73;;;;;;;25.60;28.55;95670.75;4973664;28;20018;-33
2021/03/11 09:27:59;;;;;;;1.05;0.80;;;;;;;25.59;28.32;95667.28;4978165;28;20035;-33
2021/03/11 09:30:36;;;;;;;25.50;1.83;;;;;;;25.59;26.38;95650.72;4958527;28;20117;-33
2021/03/11 09:33:08;;;;;;;7.93;0.93;;;;;;;25.57;27.17;95658.69;4978517;28;20533;-34
2021/03/11 09:35:33;;;;;;;4.65;0.95;;;;;;;25.55;27.81;95653.53;4973177;28;20034;-36
2021/03/11 09:38:00;;;;;;;2.22;0.70;;;;;;;25.55;28.01;95635.16;4971716;28;20033;-34
2021/03/11 09:40:32;;;;;;;2.78;0.70;;;;;;;25.56;28.25;95646.53;4973998;28;20030;-34
2021/03/11 09:43:06;;;;;;;3.88;0.73;;;;;;;25.56;28.31;95631.63;4974622;28;20034;-33
2021/03/11 09:45:41;;;;;;;3.22;0.60;;;;;;;25.56;28.51;95642.09;4977220;28;20053;-34
2021/03/11 09:48:18;;;;;;;14.43;1.20;;;;;;;25.56;27.43;95652.59;4995127;28;20026;-33
2021/03/11 09:50:57;;;;;;;9.63;0.90;;;;;;;25.51;26.57;95657.31;4994243;28;20053;-33
2021/03/11 09:53:24;;;;;;;2.83;1.05;;;;;;;25.46;26.15;95651.53;4978112;28;20462;-35
2021/03/11 09:55:52;;;;;;;6.13;1.05;;;;;;;25.39;25.96;95639.78;4993676;28;20069;-33
2021/03/11 09:58:18;;;;;;;7.75;1.23;;;;;;;25.31;26.05;95641.19;4995043;28;20101;-35
2021/03/11 10:00:47;;;;;;;18.00;2.80;;;;;;;25.26;25.84;95639.81;4970933;28;20046;-32
2021/03/11 10:03:22;;;;;;;24.83;3.15;;;;;;;25.18;25.65;95642.97;4994299;28;20026;-33
2021/03/11 10:05:52;;;;;;;12.50;2.40;;;;;;;25.12;25.74;95638.13;4988889;28;20088;-33
2021/03/11 10:08:31;;;;;;;14.48;2.67;;;;;;;25.08;26.12;95636.66;4987884;28;20045;-31
2021/03/11 10:11:17;;;;;;;9.77;2.55;;;;;;;25.06;26.74;95631.56;4996566;28;20085;-32
2021/03/11 10:13:48;;;;;;;13.35;2.83;;;;;;;25.07;27.05;95635.00;4996263;28;20439;-35
2021/03/11 10:16:14;;;;;;;18.15;2.65;;;;;;;25.08;27.06;95634.06;5005940;28;20041;-33
2021/03/11 10:19:16;;;;;;;13.52;2.25;;;;;;;25.11;27.45;95625.97;4983830;28;20027;-33
2021/03/11 10:21:48;;;;;;;12.88;2.33;;;;;;;25.14;27.56;95633.66;4962875;28;20038;-33
2021/03/11 10:24:14;;;;;;;8.73;2.35;;;;;;;25.15;27.47;95628.31;5005049;28;20518;-32
2021/03/11 10:26:39;;;;;;;28.58;3.35;;;;;;;25.19;27.83;95623.69;5014608;28;20031;-32
2021/03/11 10:29:09;;;;;;;10.95;2.33;;;;;;;25.21;27.73;95621.81;4976792;28;20025;-34
2021/03/11 10:31:34;;;;;;;13.23;2.30;;;;;;;25.23;27.78;95621.66;4997138;28;20112;-31
2021/03/11 10:34:01;;;;;;;9.18;3.17;;;;;;;25.24;27.71;95612.88;5004838;28;20100;-31
2021/03/11 10:36:27;;;;;;;11.98;2.20;;;;;;;25.27;27.80;95610.88;4992369;28;20100;-33
2021/03/11 10:39:08;;;;;;;8.13;2.20;;;;;;;25.27;27.97;95605.63;4990455;28;20030;-35
2021/03/11 10:41:34;;;;;;;12.43;2.20;;;;;;;25.30;27.83;95615.06;4999210;28;20028;-31
2021/03/11 10:44:07;;;;;;;8.50;2.20;;;;;;;25.33;28.04;95614.00;5006450;28;20037;-32
2021/03/11 10:46:33;;;;;;;11.90;2.40;;;;;;;25.34;28.00;95616.53;5004285;28;20052;-31
2021/03/11 10:48:58;;;;;;;9.20;2.15;;;;;;;25.36;28.15;95616.44;5006710;28;20037;-31
2021/03/11 10:51:25;;;;;;;8.73;2.00;;;;;;;25.37;28.15;95610.22;5006739;28;20026;-32
2021/03/11 10:53:51;;;;;;;5.88;1.83;;;;;;;25.38;28.09;95607.50;4987664;28;20026;-32
2021/03/11 10:56:16;;;;;;;8.40;2.25;;;;;;;25.38;28.12;95627.63;5004089;28;20454;-34
2021/03/11 10:58:42;;;;;;;12.90;2.45;;;;;;;25.39;27.95;95618.81;5007790;28;20030;-34
2021/03/11 11:01:14;;;;;;;9.27;2.38;;;;;;;25.41;27.94;95632.69;5000025;28;20507;-32
2021/03/11 11:03:42;;;;;;;8.90;1.92;;;;;;;25.41;28.01;95637.91;4979201;28;20040;-33
2021/03/11 11:06:07;;;;;;;7.32;2.33;;;;;;;25.42;28.06;95653.56;4977478;28;21180;-34
2021/03/11 11:08:33;;;;;;;8.73;2.05;;;;;;;25.42;28.15;95650.94;4976567;28;20038;-33
2021/03/11 11:11:01;;;;;;;5.00;1.50;;;;;;;25.44;27.98;95648.22;4978963;28;20027;-35
2021/03/11 11:13:27;;;;;;;6.88;2.10;;;;;;;25.45;27.99;95647.25;4988539;28;20038;-34
2021/03/11 11:15:52;;;;;;;10.07;2.15;;;;;;;25.46;28.13;95659.41;4969049;28;20128;-32
2021/03/11 11:18:18;;;;;;;8.88;2.15;;;;;;;25.47;28.31;95652.41;4988885;28;20486;-33
2021/03/11 11:20:43;;;;;;;11.25;2.03;;;;;;;25.47;28.34;95661.09;4989025;28;20030;-31
2021/03/11 11:23:08;;;;;;;6.90;1.63;;;;;;;25.47;28.17;95663.72;4987928;28;20038;-35
2021/03/11 11:25:34;;;;;;;5.82;1.90;;;;;;;25.47;28.34;95684.69;4982020;28;20022;-34
2021/03/11 11:27:59;;;;;;;5.53;1.77;;;;;;;25.47;28.16;95676.81;4980602;28;20038;-34
2021/03/11 11:30:25;;;;;;;9.90;1.70;;;;;;;25.48;28.03;95675.91;4984259;28;20030;-33
2021/03/11 11:32:52;;;;;;;10.00;2.28;;;;;;;25.47;28.23;95663.72;4988091;28;20057;-35
2021/03/11 11:35:18;;;;;;;5.15;2.00;;;;;;;25.47;28.27;95650.59;4987282;28;20026;-33
2021/03/11 11:37:43;;;;;;;7.75;1.90;;;;;;;25.49;28.23;95651.34;4982297;28;20049;-35
2021/03/11 11:40:10;;;;;;;6.18;2.03;;;;;;;25.49;28.35;95651.34;4985301;28;20625;-33